Karukera — FAE7796 — position and weather

sailwx.info

Track history (hours):
 
Tides and Currents Weather Stations Pressure Air Temp Water Temp Dewpoint Dewpoint Depression Visibility Wind Speed Wind Dir Waves Ship Positions

Karukera

Last reported at 2018-Jun-02 14:21 UTC. Time now 2018-Jun-18 11:48 UTC.
Position N 47°29' W 002°60'.
Warning: this ship's position is 15 days out of date.

Length 14 m.

Type: Sailing vessel. MMSI: 227811830.

Date/timePositionNaut miles runAvg speedWind from/ knotsBaromVisibWave heightAir tempDewpointWater temp
2018-Jun-02 14:21N 47°29' W 002°60'3 7.5
2018-Jun-02 14:00N 47°26' W 002°59'2 4.1
2018-Jun-02 13:30N 47°24' W 002°59'0 0.0
2018-Jun-02 11:19N 47°24' W 002°59'0 0.0
2018-Jun-02 10:58N 47°24' W 002°59'0 0.1
2018-Jun-02 09:09N 47°24' W 002°59'0 0.0
2018-Jun-02 09:00N 47°24' W 002°59'0 0.0
2018-Jun-02 08:30N 47°24' W 002°59'2 4.2
2018-Jun-02 08:00N 47°23' W 002°56'0 0.5
2018-Jun-02 07:28N 47°23' W 002°56'0 0.0
2018-Jun-01 20:50N 47°23' W 002°56'1 3.9
2018-Jun-01 20:30N 47°22' W 002°57'1 0.2
2018-Jun-01 14:59N 47°23' W 002°58'2 4.8
2018-Jun-01 14:30N 47°23' W 003°01'3 7.0
2018-Jun-01 14:01N 47°23' W 003°06'3 6.9
2018-Jun-01 13:31N 47°23' W 003°11'1 0.1
2018-May-31 15:51N 47°23' W 003°13'0 0.1
2018-May-31 15:19N 47°23' W 003°13'0 0.0
2018-May-31 14:58N 47°23' W 003°13'1 2.4
2018-May-31 14:30N 47°24' W 003°14'5 9.2
2018-May-31 14:00N 47°26' W 003°20'4 8.8
2018-May-31 13:30N 47°28' W 003°25'4 8.5
2018-May-31 13:00N 47°31' W 003°30'4 8.2
2018-May-31 12:30N 47°33' W 003°35'4 8.0
2018-May-31 12:00N 47°36' W 003°40'14 4.3
2018-May-31 08:38N 47°43' W 003°58'3 0.1
2018-May-30 08:58N 47°45' W 004°02'6 6.5
2018-May-30 07:58N 47°49' W 004°08'0 0.0
2018-May-28 15:58N 47°50' W 004°08'5 5.0
2018-May-28 14:53N 47°47' W 004°01'3 0.1
2018-May-27 13:53N 47°44' W 003°60'4 3.9
2018-May-27 12:53N 47°43' W 003°54'6 6.4
2018-May-27 12:01N 47°41' W 003°46'0 6.6
2018-May-27 11:58N 47°41' W 003°46'3 5.8
2018-May-27 11:30N 47°40' W 003°42'2 5.0
2018-May-27 11:00N 47°40' W 003°38'2 4.6
2018-May-27 10:30N 47°40' W 003°35'2 4.7
2018-May-27 10:00N 47°40' W 003°31'3 5.9
2018-May-27 09:30N 47°39' W 003°27'0 0.0
2018-May-26 19:48N 47°39' W 003°27'0 0.0
2018-May-26 19:30N 47°39' W 003°27'0 0.0
2018-May-26 19:00N 47°39' W 003°27'0 0.0
2018-May-26 18:30N 47°39' W 003°27'0 0.0
2018-May-26 10:24N 47°39' W 003°27'0 0.1
2018-May-26 09:59N 47°39' W 003°27'2 4.7
2018-May-26 09:30N 47°38' W 003°24'3 6.4
2018-May-26 09:00N 47°35' W 003°21'3 6.8
2018-May-26 08:30N 47°33' W 003°17'4 7.3
2018-May-26 08:00N 47°31' W 003°13'4 8.3
2018-May-26 07:30N 47°28' W 003°08'4 7.9
2018-May-26 07:00N 47°25' W 003°04'4 7.9
2018-May-26 06:30N 47°23' W 002°59'1 0.1
2018-May-25 16:13N 47°23' W 002°58'0 1.0
2018-May-25 16:00N 47°23' W 002°58'2 3.6
2018-May-25 15:30N 47°24' W 002°57'3 5.8
2018-May-25 15:00N 47°27' W 002°59'3 6.4
2018-May-25 14:30N 47°30' W 002°60'3 6.3
2018-May-25 14:00N 47°33' W 003°01'2 3.4
2018-May-25 13:30N 47°34' W 003°01'  
Track history (hours):
 
Tides and Currents Weather Stations Pressure Air Temp Water Temp Dewpoint Dewpoint Depression Visibility Wind Speed Wind Dir Waves Ship Positions

Karukera

Last reported at 2018-Jun-02 14:21 UTC. Time now 2018-Jun-18 11:48 UTC.
Position N 47°29' W 002°60'.
Warning: this ship's position is 15 days out of date.

Length 14 m.

Type: Sailing vessel. MMSI: 227811830.

Date/timePositionNaut miles runAvg speedWind from/ knotsBaromVisibWave heightAir tempDewpointWater temp
2018-Jun-02 14:21N 47°29' W 002°60'3 7.5
2018-Jun-02 14:00N 47°26' W 002°59'2 4.1
2018-Jun-02 13:30N 47°24' W 002°59'0 0.0
2018-Jun-02 11:19N 47°24' W 002°59'0 0.0
2018-Jun-02 10:58N 47°24' W 002°59'0 0.1
2018-Jun-02 09:09N 47°24' W 002°59'0 0.0
2018-Jun-02 09:00N 47°24' W 002°59'0 0.0
2018-Jun-02 08:30N 47°24' W 002°59'2 4.2
2018-Jun-02 08:00N 47°23' W 002°56'0 0.5
2018-Jun-02 07:28N 47°23' W 002°56'0 0.0
2018-Jun-01 20:50N 47°23' W 002°56'1 3.9
2018-Jun-01 20:30N 47°22' W 002°57'1 0.2
2018-Jun-01 14:59N 47°23' W 002°58'2 4.8
2018-Jun-01 14:30N 47°23' W 003°01'3 7.0
2018-Jun-01 14:01N 47°23' W 003°06'3 6.9
2018-Jun-01 13:31N 47°23' W 003°11'1 0.1
2018-May-31 15:51N 47°23' W 003°13'0 0.1
2018-May-31 15:19N 47°23' W 003°13'0 0.0
2018-May-31 14:58N 47°23' W 003°13'1 2.4
2018-May-31 14:30N 47°24' W 003°14'5 9.2
2018-May-31 14:00N 47°26' W 003°20'4 8.8
2018-May-31 13:30N 47°28' W 003°25'4 8.5
2018-May-31 13:00N 47°31' W 003°30'4 8.2
2018-May-31 12:30N 47°33' W 003°35'4 8.0
2018-May-31 12:00N 47°36' W 003°40'14 4.3
2018-May-31 08:38N 47°43' W 003°58'3 0.1
2018-May-30 08:58N 47°45' W 004°02'6 6.5
2018-May-30 07:58N 47°49' W 004°08'0 0.0
2018-May-28 15:58N 47°50' W 004°08'5 5.0
2018-May-28 14:53N 47°47' W 004°01'3 0.1
2018-May-27 13:53N 47°44' W 003°60'4 3.9
2018-May-27 12:53N 47°43' W 003°54'6 6.4
2018-May-27 12:01N 47°41' W 003°46'0 6.6
2018-May-27 11:58N 47°41' W 003°46'3 5.8
2018-May-27 11:30N 47°40' W 003°42'2 5.0
2018-May-27 11:00N 47°40' W 003°38'2 4.6
2018-May-27 10:30N 47°40' W 003°35'2 4.7
2018-May-27 10:00N 47°40' W 003°31'3 5.9
2018-May-27 09:30N 47°39' W 003°27'0 0.0
2018-May-26 19:48N 47°39' W 003°27'0 0.0
2018-May-26 19:30N 47°39' W 003°27'0 0.0
2018-May-26 19:00N 47°39' W 003°27'0 0.0
2018-May-26 18:30N 47°39' W 003°27'0 0.0
2018-May-26 10:24N 47°39' W 003°27'0 0.1
2018-May-26 09:59N 47°39' W 003°27'2 4.7
2018-May-26 09:30N 47°38' W 003°24'3 6.4
2018-May-26 09:00N 47°35' W 003°21'3 6.8
2018-May-26 08:30N 47°33' W 003°17'4 7.3
2018-May-26 08:00N 47°31' W 003°13'4 8.3
2018-May-26 07:30N 47°28' W 003°08'4 7.9
2018-May-26 07:00N 47°25' W 003°04'4 7.9
2018-May-26 06:30N 47°23' W 002°59'1 0.1
2018-May-25 16:13N 47°23' W 002°58'0 1.0
2018-May-25 16:00N 47°23' W 002°58'2 3.6
2018-May-25 15:30N 47°24' W 002°57'3 5.8
2018-May-25 15:00N 47°27' W 002°59'3 6.4
2018-May-25 14:30N 47°30' W 002°60'3 6.3
2018-May-25 14:00N 47°33' W 003°01'2 3.4
2018-May-25 13:30N 47°34' W 003°01'  

Dump ship's entire track history